This is the latest recevied weather packets stored in our database for station/object N3NDE. If no packets are shown the sender has not sent any weather packets the latest 1 day(s).
| Time | Temp. | Humidity | Pressure | Rain* | Wind** | Luminosity | Snow |
|---|---|---|---|---|---|---|---|
| 1777999662 | 5.56° C | 87% | 1012.9 hPa | 0 mm | 0.45 m/s, 52° | 188 W/m² | - |
| 1777999359 | 5° C | 85% | 1013 hPa | 0 mm | 0 m/s | 154 W/m² | - |
| 1777999057 | 5° C | 87% | 1013.3 hPa | 0 mm | 0.89 m/s, 38° | 162 W/m² | - |
| 1777998756 | 5° C | 87% | 1013.4 hPa | 0 mm | 0.89 m/s, 34° | 188 W/m² | - |
| 1777998452 | 5° C | 88% | 1013 hPa | 0 mm | 0 m/s | 159 W/m² | - |
| 1777998150 | 5° C | 88% | 1013.4 hPa | 0 mm | 0.45 m/s, 49° | 167 W/m² | - |
| 1777997846 | 5° C | 89% | 1013.3 hPa | 0 mm | 0 m/s | 136 W/m² | - |
| 1777997544 | 5° C | 89% | 1013.1 hPa | 0 mm | 0 m/s | 135 W/m² | - |
| 1777997241 | 4.44° C | 90% | 1013.3 hPa | 0 mm | 0.89 m/s, 49° | 148 W/m² | - |
| 1777996939 | 4.44° C | 91% | 1013.1 hPa | 0 mm | 0.45 m/s, 57° | 276 W/m² | - |
| 1777996635 | 4.44° C | 92% | 1013.1 hPa | 0 mm | 0.45 m/s, 57° | 207 W/m² | - |
| 1777996332 | 3.89° C | 92% | 1013.1 hPa | 0 mm | 0 m/s | 152 W/m² | - |
| 1777996028 | 3.89° C | 92% | 1013.1 hPa | 1.27 mm | 0 m/s | 143 W/m² | - |
| 1777995724 | 3.89° C | 93% | 1013.1 hPa | 1.27 mm | 0 m/s | 132 W/m² | - |
| 1777995421 | 3.33° C | 93% | 1013.4 hPa | 3.05 mm | 0 m/s | 102 W/m² | - |
| 1777995118 | 3.33° C | 93% | 1013.3 hPa | 4.83 mm | 0.45 m/s, 68° | 84 W/m² | - |
| 1777994815 | 3.33° C | 93% | 1013.3 hPa | 4.32 mm | 0.45 m/s, 65° | 74 W/m² | - |
| 1777994511 | 2.78° C | 93% | 1013.1 hPa | 3.05 mm | 0 m/s | 59 W/m² | - |
| 1777994206 | 2.78° C | 93% | 1013.4 hPa | 4.83 mm | 0 m/s | 74 W/m² | - |
| 1777993904 | 2.22° C | 92% | 1013.4 hPa | 6.1 mm | 0 m/s | 77 W/m² | - |
| 1777993600 | 2.22° C | 92% | 1013.4 hPa | 6.1 mm | 1.34 m/s, 57° | 57 W/m² | - |
| 1777993297 | 2.22° C | 91% | 1013.5 hPa | 4.83 mm | 0.89 m/s, 65° | 46 W/m² | - |
| 1777992992 | 2.22° C | 91% | 1013.7 hPa | 4.83 mm | 0.89 m/s, 56° | 39 W/m² | - |
| 1777992691 | 2.78° C | 90% | 1013.5 hPa | 4.32 mm | 0.89 m/s, 67° | 36 W/m² | - |
| 1777992388 | 2.78° C | 90% | 1013.5 hPa | 4.32 mm | 0.89 m/s, 55° | 29 W/m² | - |
* Rain latest hour (hover to see other rain measurements)
** Current wind speed in m/s (hover to see current wind gust speed)